sensor_id;sensor_type;location;lat;lon;timestamp;temperature;humidity
16315;DHT22;8266;52.150;4.768;2023-03-01T00:01:57;4.20;99.90
16315;DHT22;8266;52.150;4.768;2023-03-01T00:04:23;4.10;99.90
16315;DHT22;8266;52.150;4.768;2023-03-01T00:06:51;4.10;99.90
16315;DHT22;8266;52.150;4.768;2023-03-01T00:09:18;4.10;99.90
16315;DHT22;8266;52.150;4.768;2023-03-01T00:11:46;4.00;99.90
16315;DHT22;8266;52.150;4.768;2023-03-01T00:14:13;4.00;99.90
16315;DHT22;8266;52.150;4.768;2023-03-01T00:16:43;4.00;99.90
16315;DHT22;8266;52.150;4.768;2023-03-01T00:19:13;4.00;99.90
16315;DHT22;8266;52.150;4.768;2023-03-01T00:21:40;4.00;99.90
16315;DHT22;8266;52.150;4.768;2023-03-01T00:24:07;3.90;99.90
16315;DHT22;8266;52.150;4.768;2023-03-01T00:26:34;4.00;99.90
16315;DHT22;8266;52.150;4.768;2023-03-01T00:29:03;3.90;99.90
16315;DHT22;8266;52.150;4.768;2023-03-01T00:31:31;4.00;99.90
16315;DHT22;8266;52.150;4.768;2023-03-01T00:34:01;3.90;99.90
16315;DHT22;8266;52.150;4.768;2023-03-01T00:36:30;3.80;99.90
16315;DHT22;8266;52.150;4.768;2023-03-01T00:38:58;3.80;99.90
16315;DHT22;8266;52.150;4.768;2023-03-01T00:41:25;3.80;99.90
16315;DHT22;8266;52.150;4.768;2023-03-01T00:43:53;3.80;99.90
16315;DHT22;8266;52.150;4.768;2023-03-01T00:46:24;3.80;99.90
16315;DHT22;8266;52.150;4.768;2023-03-01T00:48:51;3.80;99.90
16315;DHT22;8266;52.150;4.768;2023-03-01T00:51:20;3.80;99.90
16315;DHT22;8266;52.150;4.768;2023-03-01T00:53:47;3.70;99.90
16315;DHT22;8266;52.150;4.768;2023-03-01T00:56:16;3.70;99.90
16315;DHT22;8266;52.150;4.768;2023-03-01T00:58:43;3.70;99.90
16315;DHT22;8266;52.150;4.768;2023-03-01T01:01:12;3.70;99.90
16315;DHT22;8266;52.150;4.768;2023-03-01T01:03:46;3.70;99.90
16315;DHT22;8266;52.150;4.768;2023-03-01T01:06:15;3.60;99.90
16315;DHT22;8266;52.150;4.768;2023-03-01T01:08:42;3.70;99.90
16315;DHT22;8266;52.150;4.768;2023-03-01T01:11:09;3.60;99.90
16315;DHT22;8266;52.150;4.768;2023-03-01T01:13:37;3.60;99.90
16315;DHT22;8266;52.150;4.768;2023-03-01T01:16:04;3.60;99.90
16315;DHT22;8266;52.150;4.768;2023-03-01T01:18:32;3.60;99.90
16315;DHT22;8266;52.150;4.768;2023-03-01T01:21:05;3.60;99.90
16315;DHT22;8266;52.150;4.768;2023-03-01T01:23:33;3.60;99.90
16315;DHT22;8266;52.150;4.768;2023-03-01T01:26:04;3.60;99.90
16315;DHT22;8266;52.150;4.768;2023-03-01T01:28:31;3.60;99.90
16315;DHT22;8266;52.150;4.768;2023-03-01T01:30:58;3.60;99.90
16315;DHT22;8266;52.150;4.768;2023-03-01T01:33:25;3.60;99.90
16315;DHT22;8266;52.150;4.768;2023-03-01T01:35:52;3.60;99.90
16315;DHT22;8266;52.150;4.768;2023-03-01T01:38:21;3.60;99.90
16315;DHT22;8266;52.150;4.768;2023-03-01T01:40:50;3.50;99.90
16315;DHT22;8266;52.150;4.768;2023-03-01T01:43:20;3.50;99.90
16315;DHT22;8266;52.150;4.768;2023-03-01T01:45:48;3.50;99.90
16315;DHT22;8266;52.150;4.768;2023-03-01T01:48:18;3.50;99.90
16315;DHT22;8266;52.150;4.768;2023-03-01T01:50:51;3.60;99.90
16315;DHT22;8266;52.150;4.768;2023-03-01T01:53:22;3.50;99.90
16315;DHT22;8266;52.150;4.768;2023-03-01T01:55:53;3.60;99.90
16315;DHT22;8266;52.150;4.768;2023-03-01T01:58:24;3.50;99.90
16315;DHT22;8266;52.150;4.768;2023-03-01T02:00:53;3.50;99.90
16315;DHT22;8266;52.150;4.768;2023-03-01T02:03:24;3.40;99.90
16315;DHT22;8266;52.150;4.768;2023-03-01T02:05:58;3.40;99.90
16315;DHT22;8266;52.150;4.768;2023-03-01T02:08:32;3.40;99.90
16315;DHT22;8266;52.150;4.768;2023-03-01T02:11:01;3.40;99.90
16315;DHT22;8266;52.150;4.768;2023-03-01T02:13:30;3.30;99.90
16315;DHT22;8266;52.150;4.768;2023-03-01T02:15:57;3.30;99.90
16315;DHT22;8266;52.150;4.768;2023-03-01T02:18:25;3.30;99.90
16315;DHT22;8266;52.150;4.768;2023-03-01T02:21:05;3.30;99.90
16315;DHT22;8266;52.150;4.768;2023-03-01T02:23:36;3.20;99.90
16315;DHT22;8266;52.150;4.768;2023-03-01T02:26:09;3.20;99.90
16315;DHT22;8266;52.150;4.768;2023-03-01T02:28:42;3.20;99.90
16315;DHT22;8266;52.150;4.768;2023-03-01T02:31:15;3.20;99.90
16315;DHT22;8266;52.150;4.768;2023-03-01T02:34:00;3.10;99.90
16315;DHT22;8266;52.150;4.768;2023-03-01T02:36:33;3.10;99.90
16315;DHT22;8266;52.150;4.768;2023-03-01T02:39:03;3.00;99.90
16315;DHT22;8266;52.150;4.768;2023-03-01T02:41:35;3.10;99.90
16315;DHT22;8266;52.150;4.768;2023-03-01T02:44:04;3.10;99.90
16315;DHT22;8266;52.150;4.768;2023-03-01T02:46:31;3.10;99.90
16315;DHT22;8266;52.150;4.768;2023-03-01T02:48:59;3.10;99.90
16315;DHT22;8266;52.150;4.768;2023-03-01T02:51:43;3.00;99.90
16315;DHT22;8266;52.150;4.768;2023-03-01T02:54:20;3.00;99.90
16315;DHT22;8266;52.150;4.768;2023-03-01T02:56:49;3.00;99.90
16315;DHT22;8266;52.150;4.768;2023-03-01T02:59:20;3.10;99.90
16315;DHT22;8266;52.150;4.768;2023-03-01T03:01:47;3.00;99.90
16315;DHT22;8266;52.150;4.768;2023-03-01T03:04:16;3.00;99.90
16315;DHT22;8266;52.150;4.768;2023-03-01T03:06:44;3.00;99.90
16315;DHT22;8266;52.150;4.768;2023-03-01T03:09:11;3.00;99.90
16315;DHT22;8266;52.150;4.768;2023-03-01T03:11:39;3.00;99.90
16315;DHT22;8266;52.150;4.768;2023-03-01T03:14:07;3.00;99.90
16315;DHT22;8266;52.150;4.768;2023-03-01T03:16:41;3.00;99.90
16315;DHT22;8266;52.150;4.768;2023-03-01T03:19:09;2.90;99.90
16315;DHT22;8266;52.150;4.768;2023-03-01T03:21:37;2.90;99.90
16315;DHT22;8266;52.150;4.768;2023-03-01T03:24:04;2.90;99.90
16315;DHT22;8266;52.150;4.768;2023-03-01T03:26:32;2.90;99.90
16315;DHT22;8266;52.150;4.768;2023-03-01T03:28:59;2.90;99.90
16315;DHT22;8266;52.150;4.768;2023-03-01T03:31:27;2.80;99.90
16315;DHT22;8266;52.150;4.768;2023-03-01T03:33:55;2.80;99.90
16315;DHT22;8266;52.150;4.768;2023-03-01T03:36:24;2.80;99.90
16315;DHT22;8266;52.150;4.768;2023-03-01T03:38:51;2.80;99.90
16315;DHT22;8266;52.150;4.768;2023-03-01T03:41:18;2.80;99.90
16315;DHT22;8266;52.150;4.768;2023-03-01T03:43:45;2.80;99.90
16315;DHT22;8266;52.150;4.768;2023-03-01T03:46:12;2.80;99.90
16315;DHT22;8266;52.150;4.768;2023-03-01T03:48:41;2.80;99.90
16315;DHT22;8266;52.150;4.768;2023-03-01T03:51:11;2.70;99.90
16315;DHT22;8266;52.150;4.768;2023-03-01T03:53:39;2.70;99.90
16315;DHT22;8266;52.150;4.768;2023-03-01T03:56:06;2.70;99.90
16315;DHT22;8266;52.150;4.768;2023-03-01T03:58:33;2.70;99.90
16315;DHT22;8266;52.150;4.768;2023-03-01T04:01:00;2.70;99.90
16315;DHT22;8266;52.150;4.768;2023-03-01T04:03:29;2.60;99.90
16315;DHT22;8266;52.150;4.768;2023-03-01T04:05:58;2.60;99.90
16315;DHT22;8266;52.150;4.768;2023-03-01T04:08:27;2.50;99.90
16315;DHT22;8266;52.150;4.768;2023-03-01T04:10:58;2.50;99.90
16315;DHT22;8266;52.150;4.768;2023-03-01T04:13:26;2.40;99.90
16315;DHT22;8266;52.150;4.768;2023-03-01T04:15:54;2.40;99.90
16315;DHT22;8266;52.150;4.768;2023-03-01T04:18:22;2.30;99.90
16315;DHT22;8266;52.150;4.768;2023-03-01T04:20:50;2.30;99.90
16315;DHT22;8266;52.150;4.768;2023-03-01T04:23:20;2.20;99.90
16315;DHT22;8266;52.150;4.768;2023-03-01T04:25:51;2.20;99.90
16315;DHT22;8266;52.150;4.768;2023-03-01T04:28:20;2.10;99.90
16315;DHT22;8266;52.150;4.768;2023-03-01T04:30:47;2.10;99.90
16315;DHT22;8266;52.150;4.768;2023-03-01T04:33:14;2.00;99.90
16315;DHT22;8266;52.150;4.768;2023-03-01T04:35:41;2.00;99.90
16315;DHT22;8266;52.150;4.768;2023-03-01T04:38:09;1.90;99.90
16315;DHT22;8266;52.150;4.768;2023-03-01T04:40:36;1.90;99.90
16315;DHT22;8266;52.150;4.768;2023-03-01T04:43:05;1.80;99.90
16315;DHT22;8266;52.150;4.768;2023-03-01T04:45:33;1.80;99.90
16315;DHT22;8266;52.150;4.768;2023-03-01T04:48:01;1.70;99.90
16315;DHT22;8266;52.150;4.768;2023-03-01T04:50:28;1.70;99.90
16315;DHT22;8266;52.150;4.768;2023-03-01T04:52:55;1.60;99.90
16315;DHT22;8266;52.150;4.768;2023-03-01T04:55:24;1.50;99.90
16315;DHT22;8266;52.150;4.768;2023-03-01T04:57:52;1.50;99.90
16315;DHT22;8266;52.150;4.768;2023-03-01T05:00:23;1.40;99.90
16315;DHT22;8266;52.150;4.768;2023-03-01T05:02:51;1.40;99.90
16315;DHT22;8266;52.150;4.768;2023-03-01T05:05:25;1.30;99.90
16315;DHT22;8266;52.150;4.768;2023-03-01T05:07:54;1.30;99.90
16315;DHT22;8266;52.150;4.768;2023-03-01T05:10:21;1.30;99.90
16315;DHT22;8266;52.150;4.768;2023-03-01T05:12:48;1.20;99.90
16315;DHT22;8266;52.150;4.768;2023-03-01T05:15:15;1.20;99.90
16315;DHT22;8266;52.150;4.768;2023-03-01T05:17:44;1.10;99.90
16315;DHT22;8266;52.150;4.768;2023-03-01T05:20:12;1.10;99.90
16315;DHT22;8266;52.150;4.768;2023-03-01T05:22:39;1.10;99.90
16315;DHT22;8266;52.150;4.768;2023-03-01T05:25:06;1.10;99.90
16315;DHT22;8266;52.150;4.768;2023-03-01T05:27:34;1.00;99.90
16315;DHT22;8266;52.150;4.768;2023-03-01T05:30:02;1.00;99.90
16315;DHT22;8266;52.150;4.768;2023-03-01T05:32:40;0.90;99.90
16315;DHT22;8266;52.150;4.768;2023-03-01T05:35:10;0.90;99.90
16315;DHT22;8266;52.150;4.768;2023-03-01T05:37:41;0.80;99.90
16315;DHT22;8266;52.150;4.768;2023-03-01T05:40:10;0.80;99.90
16315;DHT22;8266;52.150;4.768;2023-03-01T05:42:44;0.70;99.90
16315;DHT22;8266;52.150;4.768;2023-03-01T05:45:12;0.70;99.90
16315;DHT22;8266;52.150;4.768;2023-03-01T05:47:39;0.70;99.90
16315;DHT22;8266;52.150;4.768;2023-03-01T05:50:13;0.70;99.90
16315;DHT22;8266;52.150;4.768;2023-03-01T05:52:45;0.60;99.90
16315;DHT22;8266;52.150;4.768;2023-03-01T05:55:12;0.60;99.90
16315;DHT22;8266;52.150;4.768;2023-03-01T05:57:39;0.50;99.90
16315;DHT22;8266;52.150;4.768;2023-03-01T06:00:07;0.60;99.90
16315;DHT22;8266;52.150;4.768;2023-03-01T06:02:34;0.50;99.90
16315;DHT22;8266;52.150;4.768;2023-03-01T06:05:02;0.50;99.90
16315;DHT22;8266;52.150;4.768;2023-03-01T06:07:31;0.50;99.90
16315;DHT22;8266;52.150;4.768;2023-03-01T06:09:58;0.50;99.90
16315;DHT22;8266;52.150;4.768;2023-03-01T06:12:25;0.50;99.90
16315;DHT22;8266;52.150;4.768;2023-03-01T06:14:52;0.50;99.90
16315;DHT22;8266;52.150;4.768;2023-03-01T06:17:20;0.50;99.90
16315;DHT22;8266;52.150;4.768;2023-03-01T06:19:47;0.50;99.90
16315;DHT22;8266;52.150;4.768;2023-03-01T06:22:13;0.50;99.90
16315;DHT22;8266;52.150;4.768;2023-03-01T06:24:42;0.50;99.90
16315;DHT22;8266;52.150;4.768;2023-03-01T06:27:09;0.50;99.90
16315;DHT22;8266;52.150;4.768;2023-03-01T06:29:36;0.50;99.90
16315;DHT22;8266;52.150;4.768;2023-03-01T06:32:03;0.50;99.90
16315;DHT22;8266;52.150;4.768;2023-03-01T06:34:30;0.50;99.90
16315;DHT22;8266;52.150;4.768;2023-03-01T06:36:57;0.50;99.90
16315;DHT22;8266;52.150;4.768;2023-03-01T06:39:24;0.50;99.90
16315;DHT22;8266;52.150;4.768;2023-03-01T06:41:53;0.50;99.90
16315;DHT22;8266;52.150;4.768;2023-03-01T06:44:20;0.50;99.90
16315;DHT22;8266;52.150;4.768;2023-03-01T06:46:47;0.60;99.90
16315;DHT22;8266;52.150;4.768;2023-03-01T06:49:14;0.60;99.90
16315;DHT22;8266;52.150;4.768;2023-03-01T06:51:41;0.60;99.90
16315;DHT22;8266;52.150;4.768;2023-03-01T06:54:08;0.70;99.90
16315;DHT22;8266;52.150;4.768;2023-03-01T06:56:36;0.70;99.90
16315;DHT22;8266;52.150;4.768;2023-03-01T06:59:04;0.80;99.90
16315;DHT22;8266;52.150;4.768;2023-03-01T07:01:31;0.80;99.90
16315;DHT22;8266;52.150;4.768;2023-03-01T07:03:58;0.90;99.90
16315;DHT22;8266;52.150;4.768;2023-03-01T07:06:25;1.00;99.90
16315;DHT22;8266;52.150;4.768;2023-03-01T07:08:52;1.10;99.90
16315;DHT22;8266;52.150;4.768;2023-03-01T07:11:19;1.10;99.90
16315;DHT22;8266;52.150;4.768;2023-03-01T07:13:46;1.20;99.90
16315;DHT22;8266;52.150;4.768;2023-03-01T07:16:14;1.30;99.90
16315;DHT22;8266;52.150;4.768;2023-03-01T07:18:42;1.30;99.90
16315;DHT22;8266;52.150;4.768;2023-03-01T07:21:12;1.40;99.90
16315;DHT22;8266;52.150;4.768;2023-03-01T07:23:39;1.40;99.90
16315;DHT22;8266;52.150;4.768;2023-03-01T07:26:06;1.50;99.90
16315;DHT22;8266;52.150;4.768;2023-03-01T07:28:33;1.50;99.90
16315;DHT22;8266;52.150;4.768;2023-03-01T07:31:04;1.60;99.90
16315;DHT22;8266;52.150;4.768;2023-03-01T07:33:33;1.60;99.90
16315;DHT22;8266;52.150;4.768;2023-03-01T07:36:04;1.60;99.90
16315;DHT22;8266;52.150;4.768;2023-03-01T07:38:31;1.70;99.90
16315;DHT22;8266;52.150;4.768;2023-03-01T07:40:59;1.70;99.90
16315;DHT22;8266;52.150;4.768;2023-03-01T07:43:26;1.70;99.90
16315;DHT22;8266;52.150;4.768;2023-03-01T07:45:53;1.70;99.90
16315;DHT22;8266;52.150;4.768;2023-03-01T07:48:20;1.80;99.90
16315;DHT22;8266;52.150;4.768;2023-03-01T07:50:49;1.80;99.90
16315;DHT22;8266;52.150;4.768;2023-03-01T07:53:15;1.80;99.90
16315;DHT22;8266;52.150;4.768;2023-03-01T07:55:43;1.90;99.90
16315;DHT22;8266;52.150;4.768;2023-03-01T07:58:10;1.90;99.90
16315;DHT22;8266;52.150;4.768;2023-03-01T08:00:37;1.90;99.90
16315;DHT22;8266;52.150;4.768;2023-03-01T08:03:04;1.90;99.90
16315;DHT22;8266;52.150;4.768;2023-03-01T08:05:31;1.90;99.90
16315;DHT22;8266;52.150;4.768;2023-03-01T08:08:00;2.00;99.90
16315;DHT22;8266;52.150;4.768;2023-03-01T08:10:27;2.00;99.90
16315;DHT22;8266;52.150;4.768;2023-03-01T08:12:54;2.00;99.90
16315;DHT22;8266;52.150;4.768;2023-03-01T08:15:21;2.10;99.90
16315;DHT22;8266;52.150;4.768;2023-03-01T08:17:49;2.30;99.90
16315;DHT22;8266;52.150;4.768;2023-03-01T08:20:19;2.60;99.90
16315;DHT22;8266;52.150;4.768;2023-03-01T08:22:47;2.90;99.90
16315;DHT22;8266;52.150;4.768;2023-03-01T08:25:15;3.30;99.90
16315;DHT22;8266;52.150;4.768;2023-03-01T08:27:42;3.80;99.90
16315;DHT22;8266;52.150;4.768;2023-03-01T08:30:10;4.30;99.90
16315;DHT22;8266;52.150;4.768;2023-03-01T08:32:38;4.90;99.90
16315;DHT22;8266;52.150;4.768;2023-03-01T08:35:06;5.40;99.90
16315;DHT22;8266;52.150;4.768;2023-03-01T08:37:33;5.90;99.90
16315;DHT22;8266;52.150;4.768;2023-03-01T08:40:00;6.40;99.90
16315;DHT22;8266;52.150;4.768;2023-03-01T08:42:28;6.90;99.90
16315;DHT22;8266;52.150;4.768;2023-03-01T08:44:55;7.30;99.90
16315;DHT22;8266;52.150;4.768;2023-03-01T08:47:22;7.80;99.90
16315;DHT22;8266;52.150;4.768;2023-03-01T08:49:49;8.10;99.90
16315;DHT22;8266;52.150;4.768;2023-03-01T08:52:17;8.50;99.90
16315;DHT22;8266;52.150;4.768;2023-03-01T08:54:44;8.80;99.90
16315;DHT22;8266;52.150;4.768;2023-03-01T08:57:11;9.10;99.90
16315;DHT22;8266;52.150;4.768;2023-03-01T08:59:39;9.30;99.90
16315;DHT22;8266;52.150;4.768;2023-03-01T09:02:12;9.50;99.90
16315;DHT22;8266;52.150;4.768;2023-03-01T09:04:39;9.70;99.90
16315;DHT22;8266;52.150;4.768;2023-03-01T09:07:06;9.90;99.90
16315;DHT22;8266;52.150;4.768;2023-03-01T09:09:33;10.00;99.90
16315;DHT22;8266;52.150;4.768;2023-03-01T09:12:01;10.10;99.90
16315;DHT22;8266;52.150;4.768;2023-03-01T09:14:29;10.30;99.90
16315;DHT22;8266;52.150;4.768;2023-03-01T09:16:57;10.40;99.90
16315;DHT22;8266;52.150;4.768;2023-03-01T09:19:28;10.50;99.90
16315;DHT22;8266;52.150;4.768;2023-03-01T09:21:55;10.60;99.90
16315;DHT22;8266;52.150;4.768;2023-03-01T09:24:24;10.80;99.90
16315;DHT22;8266;52.150;4.768;2023-03-01T09:26:53;10.80;99.90
16315;DHT22;8266;52.150;4.768;2023-03-01T09:29:21;11.00;99.90
16315;DHT22;8266;52.150;4.768;2023-03-01T09:31:48;11.10;99.90
16315;DHT22;8266;52.150;4.768;2023-03-01T09:34:17;11.10;99.90
16315;DHT22;8266;52.150;4.768;2023-03-01T09:36:48;11.20;99.90
16315;DHT22;8266;52.150;4.768;2023-03-01T09:39:16;11.20;99.90
16315;DHT22;8266;52.150;4.768;2023-03-01T09:41:47;11.30;99.90
16315;DHT22;8266;52.150;4.768;2023-03-01T09:44:30;11.40;99.90
16315;DHT22;8266;52.150;4.768;2023-03-01T09:46:58;11.50;99.90
16315;DHT22;8266;52.150;4.768;2023-03-01T09:49:28;11.60;99.90
16315;DHT22;8266;52.150;4.768;2023-03-01T09:52:00;11.70;99.90
16315;DHT22;8266;52.150;4.768;2023-03-01T09:54:30;11.70;99.90
16315;DHT22;8266;52.150;4.768;2023-03-01T09:57:06;11.80;99.90
16315;DHT22;8266;52.150;4.768;2023-03-01T09:59:47;11.90;99.90
16315;DHT22;8266;52.150;4.768;2023-03-01T10:02:28;11.90;99.90
16315;DHT22;8266;52.150;4.768;2023-03-01T10:05:05;12.00;99.90
16315;DHT22;8266;52.150;4.768;2023-03-01T10:07:45;12.00;99.90
16315;DHT22;8266;52.150;4.768;2023-03-01T10:10:23;12.10;99.90
16315;DHT22;8266;52.150;4.768;2023-03-01T10:12:53;12.10;99.90
16315;DHT22;8266;52.150;4.768;2023-03-01T10:15:28;12.10;99.90
16315;DHT22;8266;52.150;4.768;2023-03-01T10:18:00;12.10;99.90
16315;DHT22;8266;52.150;4.768;2023-03-01T10:20:42;12.10;99.90
16315;DHT22;8266;52.150;4.768;2023-03-01T10:23:10;12.10;99.90
16315;DHT22;8266;52.150;4.768;2023-03-01T10:25:56;12.10;99.90
16315;DHT22;8266;52.150;4.768;2023-03-01T10:28:31;12.10;99.90
16315;DHT22;8266;52.150;4.768;2023-03-01T10:31:03;12.10;99.90
16315;DHT22;8266;52.150;4.768;2023-03-01T10:33:32;12.00;99.90
16315;DHT22;8266;52.150;4.768;2023-03-01T10:36:03;11.90;99.90
16315;DHT22;8266;52.150;4.768;2023-03-01T10:38:33;11.80;99.90
16315;DHT22;8266;52.150;4.768;2023-03-01T10:41:13;11.80;99.90
16315;DHT22;8266;52.150;4.768;2023-03-01T10:43:45;11.70;99.90
16315;DHT22;8266;52.150;4.768;2023-03-01T10:46:23;11.60;99.90
16315;DHT22;8266;52.150;4.768;2023-03-01T10:49:06;11.50;99.90
16315;DHT22;8266;52.150;4.768;2023-03-01T10:51:35;11.50;99.90
16315;DHT22;8266;52.150;4.768;2023-03-01T10:54:04;11.40;99.90
16315;DHT22;8266;52.150;4.768;2023-03-01T10:56:46;11.30;99.90
16315;DHT22;8266;52.150;4.768;2023-03-01T10:59:23;11.20;99.90
16315;DHT22;8266;52.150;4.768;2023-03-01T11:02:15;11.10;99.90
16315;DHT22;8266;52.150;4.768;2023-03-01T11:05:00;11.00;99.90
16315;DHT22;8266;52.150;4.768;2023-03-01T11:07:29;10.80;99.90
16315;DHT22;8266;52.150;4.768;2023-03-01T11:09:56;10.70;99.90
16315;DHT22;8266;52.150;4.768;2023-03-01T11:12:24;10.60;99.90
16315;DHT22;8266;52.150;4.768;2023-03-01T11:14:55;10.60;99.90
16315;DHT22;8266;52.150;4.768;2023-03-01T11:17:26;10.50;99.90
16315;DHT22;8266;52.150;4.768;2023-03-01T11:20:02;10.40;99.90
16315;DHT22;8266;52.150;4.768;2023-03-01T11:22:34;10.40;99.90
16315;DHT22;8266;52.150;4.768;2023-03-01T11:25:03;10.30;99.90
16315;DHT22;8266;52.150;4.768;2023-03-01T11:27:32;10.30;99.90
16315;DHT22;8266;52.150;4.768;2023-03-01T11:30:03;10.20;99.90
16315;DHT22;8266;52.150;4.768;2023-03-01T11:32:38;10.10;99.90
16315;DHT22;8266;52.150;4.768;2023-03-01T11:35:12;10.10;99.90
16315;DHT22;8266;52.150;4.768;2023-03-01T11:37:47;10.00;99.90
16315;DHT22;8266;52.150;4.768;2023-03-01T11:40:22;9.90;99.90
16315;DHT22;8266;52.150;4.768;2023-03-01T11:43:02;9.90;99.90
16315;DHT22;8266;52.150;4.768;2023-03-01T11:45:52;9.90;99.90
16315;DHT22;8266;52.150;4.768;2023-03-01T11:48:44;9.90;99.90
16315;DHT22;8266;52.150;4.768;2023-03-01T11:51:21;9.90;99.90
16315;DHT22;8266;52.150;4.768;2023-03-01T11:54:06;9.90;99.90
16315;DHT22;8266;52.150;4.768;2023-03-01T11:56:38;9.90;99.90
16315;DHT22;8266;52.150;4.768;2023-03-01T11:59:36;9.90;99.90
16315;DHT22;8266;52.150;4.768;2023-03-01T12:02:29;10.00;99.90
16315;DHT22;8266;52.150;4.768;2023-03-01T12:05:23;10.00;99.90
16315;DHT22;8266;52.150;4.768;2023-03-01T12:07:57;10.00;99.90
16315;DHT22;8266;52.150;4.768;2023-03-01T12:10:34;10.00;99.90
16315;DHT22;8266;52.150;4.768;2023-03-01T12:13:22;10.00;99.90
16315;DHT22;8266;52.150;4.768;2023-03-01T12:16:02;10.10;99.90
16315;DHT22;8266;52.150;4.768;2023-03-01T12:18:50;10.10;99.90
16315;DHT22;8266;52.150;4.768;2023-03-01T12:21:29;10.10;99.90
16315;DHT22;8266;52.150;4.768;2023-03-01T12:24:14;10.10;99.90
16315;DHT22;8266;52.150;4.768;2023-03-01T12:26:55;10.10;99.90
16315;DHT22;8266;52.150;4.768;2023-03-01T12:29:26;10.20;99.90
16315;DHT22;8266;52.150;4.768;2023-03-01T12:32:15;10.20;99.90
16315;DHT22;8266;52.150;4.768;2023-03-01T12:35:03;10.20;99.90
16315;DHT22;8266;52.150;4.768;2023-03-01T12:37:54;10.20;99.90
16315;DHT22;8266;52.150;4.768;2023-03-01T12:40:46;10.20;99.90
16315;DHT22;8266;52.150;4.768;2023-03-01T12:43:25;10.30;99.90
16315;DHT22;8266;52.150;4.768;2023-03-01T12:46:20;10.30;99.90
16315;DHT22;8266;52.150;4.768;2023-03-01T12:48:55;10.30;99.90
16315;DHT22;8266;52.150;4.768;2023-03-01T12:51:28;10.40;99.90
16315;DHT22;8266;52.150;4.768;2023-03-01T12:53:59;10.40;99.90
16315;DHT22;8266;52.150;4.768;2023-03-01T12:56:30;10.40;99.90
16315;DHT22;8266;52.150;4.768;2023-03-01T12:59:07;10.40;99.90
16315;DHT22;8266;52.150;4.768;2023-03-01T13:01:42;10.50;99.90
16315;DHT22;8266;52.150;4.768;2023-03-01T13:04:46;10.50;99.90
16315;DHT22;8266;52.150;4.768;2023-03-01T13:07:24;10.50;99.90
16315;DHT22;8266;52.150;4.768;2023-03-01T13:10:01;10.50;99.90
16315;DHT22;8266;52.150;4.768;2023-03-01T13:12:53;10.50;99.90
16315;DHT22;8266;52.150;4.768;2023-03-01T13:15:34;10.50;99.90
16315;DHT22;8266;52.150;4.768;2023-03-01T13:18:03;10.60;99.90
16315;DHT22;8266;52.150;4.768;2023-03-01T13:20:34;10.60;99.90
16315;DHT22;8266;52.150;4.768;2023-03-01T13:23:04;10.60;99.90
16315;DHT22;8266;52.150;4.768;2023-03-01T13:25:32;10.60;99.90
16315;DHT22;8266;52.150;4.768;2023-03-01T13:28:36;10.60;99.90
16315;DHT22;8266;52.150;4.768;2023-03-01T13:31:08;10.60;99.90
16315;DHT22;8266;52.150;4.768;2023-03-01T13:33:46;10.70;99.90
16315;DHT22;8266;52.150;4.768;2023-03-01T13:36:47;10.70;99.90
16315;DHT22;8266;52.150;4.768;2023-03-01T13:39:29;10.70;99.90
16315;DHT22;8266;52.150;4.768;2023-03-01T13:41:59;10.70;99.90
16315;DHT22;8266;52.150;4.768;2023-03-01T13:44:30;10.70;99.90
16315;DHT22;8266;52.150;4.768;2023-03-01T13:47:03;10.80;99.90
16315;DHT22;8266;52.150;4.768;2023-03-01T13:49:42;10.80;99.90
16315;DHT22;8266;52.150;4.768;2023-03-01T13:55:18;10.80;99.90
16315;DHT22;8266;52.150;4.768;2023-03-01T13:57:48;10.90;99.90
16315;DHT22;8266;52.150;4.768;2023-03-01T14:00:31;10.90;99.90
16315;DHT22;8266;52.150;4.768;2023-03-01T14:03:11;10.90;99.90
16315;DHT22;8266;52.150;4.768;2023-03-01T14:05:40;11.00;99.90
16315;DHT22;8266;52.150;4.768;2023-03-01T14:08:20;10.90;99.90
16315;DHT22;8266;52.150;4.768;2023-03-01T14:13:54;11.00;99.90
16315;DHT22;8266;52.150;4.768;2023-03-01T14:16:33;10.90;99.90
16315;DHT22;8266;52.150;4.768;2023-03-01T14:19:12;10.90;99.90
16315;DHT22;8266;52.150;4.768;2023-03-01T14:21:44;11.00;99.90
16315;DHT22;8266;52.150;4.768;2023-03-01T14:24:18;11.00;99.90
16315;DHT22;8266;52.150;4.768;2023-03-01T14:26:45;11.10;99.90
16315;DHT22;8266;52.150;4.768;2023-03-01T14:29:26;11.10;99.90
16315;DHT22;8266;52.150;4.768;2023-03-01T14:31:54;11.20;99.90
16315;DHT22;8266;52.150;4.768;2023-03-01T14:34:24;11.20;99.90
16315;DHT22;8266;52.150;4.768;2023-03-01T14:36:51;11.30;99.90
16315;DHT22;8266;52.150;4.768;2023-03-01T14:39:20;11.30;99.90
16315;DHT22;8266;52.150;4.768;2023-03-01T14:41:51;11.30;99.90
16315;DHT22;8266;52.150;4.768;2023-03-01T14:44:22;11.30;99.90
16315;DHT22;8266;52.150;4.768;2023-03-01T14:46:53;11.30;99.90
16315;DHT22;8266;52.150;4.768;2023-03-01T14:49:25;11.30;99.90
16315;DHT22;8266;52.150;4.768;2023-03-01T14:51:57;11.40;99.90
16315;DHT22;8266;52.150;4.768;2023-03-01T14:54:28;11.40;99.90
16315;DHT22;8266;52.150;4.768;2023-03-01T14:56:59;11.40;99.90
16315;DHT22;8266;52.150;4.768;2023-03-01T14:59:27;11.40;99.90
16315;DHT22;8266;52.150;4.768;2023-03-01T15:01:55;11.40;99.90
16315;DHT22;8266;52.150;4.768;2023-03-01T15:04:26;11.40;99.90
16315;DHT22;8266;52.150;4.768;2023-03-01T15:06:55;11.40;99.90
16315;DHT22;8266;52.150;4.768;2023-03-01T15:09:27;11.40;99.90
16315;DHT22;8266;52.150;4.768;2023-03-01T15:11:55;11.40;99.90
16315;DHT22;8266;52.150;4.768;2023-03-01T15:14:29;11.50;99.90
16315;DHT22;8266;52.150;4.768;2023-03-01T15:17:05;11.60;99.90
16315;DHT22;8266;52.150;4.768;2023-03-01T15:19:42;11.80;99.90
16315;DHT22;8266;52.150;4.768;2023-03-01T15:22:14;11.90;99.90
16315;DHT22;8266;52.150;4.768;2023-03-01T15:24:46;12.00;99.90
16315;DHT22;8266;52.150;4.768;2023-03-01T15:27:15;12.10;99.90
16315;DHT22;8266;52.150;4.768;2023-03-01T15:29:48;12.00;99.90
16315;DHT22;8266;52.150;4.768;2023-03-01T15:32:27;12.00;99.90
16315;DHT22;8266;52.150;4.768;2023-03-01T15:34:57;11.90;99.90
16315;DHT22;8266;52.150;4.768;2023-03-01T15:37:40;11.90;99.90
16315;DHT22;8266;52.150;4.768;2023-03-01T15:40:19;11.80;99.90
16315;DHT22;8266;52.150;4.768;2023-03-01T15:42:47;11.70;99.90
16315;DHT22;8266;52.150;4.768;2023-03-01T15:45:23;11.60;99.90
16315;DHT22;8266;52.150;4.768;2023-03-01T15:47:52;11.60;99.90
16315;DHT22;8266;52.150;4.768;2023-03-01T15:50:24;11.60;99.90
16315;DHT22;8266;52.150;4.768;2023-03-01T15:52:52;11.60;99.90
16315;DHT22;8266;52.150;4.768;2023-03-01T15:55:21;11.50;99.90
16315;DHT22;8266;52.150;4.768;2023-03-01T15:57:49;11.50;99.90
16315;DHT22;8266;52.150;4.768;2023-03-01T16:00:18;11.40;99.90
16315;DHT22;8266;52.150;4.768;2023-03-01T16:02:45;11.40;99.90
16315;DHT22;8266;52.150;4.768;2023-03-01T16:05:22;11.40;99.90
16315;DHT22;8266;52.150;4.768;2023-03-01T16:07:50;11.40;99.90
16315;DHT22;8266;52.150;4.768;2023-03-01T16:10:18;11.40;99.90
16315;DHT22;8266;52.150;4.768;2023-03-01T16:12:45;11.40;99.90
16315;DHT22;8266;52.150;4.768;2023-03-01T16:15:17;11.40;99.90
16315;DHT22;8266;52.150;4.768;2023-03-01T16:17:45;11.50;99.90
16315;DHT22;8266;52.150;4.768;2023-03-01T16:20:13;11.60;99.90
16315;DHT22;8266;52.150;4.768;2023-03-01T16:22:42;11.60;99.90
16315;DHT22;8266;52.150;4.768;2023-03-01T16:25:10;11.70;99.90
16315;DHT22;8266;52.150;4.768;2023-03-01T16:27:38;11.70;99.90